createdAt,value
2018-12-25T00:00:32.578Z,83.60
2018-12-25T00:03:20.168Z,83.61
2018-12-25T00:05:48.651Z,83.62
2018-12-25T00:08:17.124Z,82.93
2018-12-25T00:13:19.858Z,82.99
2018-12-25T00:16:07.457Z,82.37
2018-12-25T00:21:42.624Z,81.68
2018-12-25T00:24:30.347Z,81.60
2018-12-25T00:26:58.830Z,81.82
2018-12-25T00:29:46.553Z,82.44
2018-12-25T00:35:08.179Z,82.44
2018-12-25T00:37:36.665Z,82.14
2018-12-25T00:40:45.050Z,82.10
2018-12-25T00:45:47.645Z,82.34
2018-12-25T00:48:35.244Z,83.05
2018-12-25T00:51:03.712Z,83.25
2018-12-25T00:53:32.196Z,83.78
2018-12-25T00:56:00.666Z,83.85
2018-12-25T00:58:48.490Z,83.39
2018-12-25T01:01:16.963Z,83.93
2018-12-25T01:04:04.688Z,84.76
2018-12-25T01:06:33.161Z,84.69
2018-12-25T01:09:01.642Z,84.88
2018-12-25T01:11:49.244Z,84.68
2018-12-25T01:14:36.965Z,84.51
2018-12-25T01:17:24.693Z,84.03
2018-12-25T01:19:53.166Z,84.55
2018-12-25T01:22:21.650Z,85.10
2018-12-25T01:33:29.203Z,85.45
2018-12-25T01:39:44.372Z,85.42
2018-12-25T01:42:12.845Z,85.49
2018-12-25T01:44:41.323Z,86.13
2018-12-25T01:49:57.537Z,86.11
2018-12-25T01:52:45.126Z,86.05
2018-12-25T01:55:13.607Z,86.07
2018-12-25T01:58:01.197Z,85.40
2018-12-25T02:00:29.677Z,85.93
2018-12-25T02:02:58.149Z,86.27
2018-12-25T02:05:45.973Z,86.50
2018-12-25T02:08:14.446Z,86.84
2018-12-25T02:10:42.924Z,86.89
2018-12-25T02:13:11.395Z,86.63
2018-12-25T02:15:59.290Z,86.14
2018-12-25T02:18:27.766Z,86.42
2018-12-25T02:20:56.248Z,85.64
2018-12-25T02:23:43.964Z,85.42
2018-12-25T02:26:31.563Z,85.42
2018-12-25T02:29:19.290Z,86.15
2018-12-25T02:31:47.763Z,86.80
2018-12-25T02:34:16.240Z,87.27
2018-12-25T02:37:03.968Z,86.47
2018-12-25T02:39:32.450Z,86.21
2018-12-25T02:45:00.779Z,85.54
2018-12-25T02:47:41.304Z,85.58
2018-12-25T02:50:09.794Z,86.35
2018-12-25T02:52:38.262Z,86.62
2018-12-25T02:55:25.988Z,86.28
2018-12-25T02:57:54.456Z,85.55
2018-12-25T03:00:42.282Z,84.87
2018-12-25T03:03:10.752Z,84.73
2018-12-25T03:05:58.577Z,85.56
2018-12-25T03:08:46.304Z,85.70
2018-12-25T03:11:34.031Z,85.12
2018-12-25T03:14:21.842Z,85.53
2018-12-25T03:17:09.674Z,85.48
2018-12-25T03:22:44.830Z,85.14
2018-12-25T03:25:32.557Z,85.12
2018-12-25T03:33:22.334Z,84.79
2018-12-25T03:36:10.049Z,85.16
2018-12-25T03:38:38.527Z,85.63
2018-12-25T03:43:41.320Z,85.92
2018-12-25T03:46:09.804Z,85.50
2018-12-25T03:48:38.273Z,85.60
2018-12-25T03:51:06.757Z,85.14
2018-12-25T03:53:54.567Z,85.69
2018-12-25T03:58:57.398Z,84.78
2018-12-25T04:01:45.126Z,84.04
2018-12-25T04:04:32.847Z,83.70
2018-12-25T04:07:20.676Z,84.29
2018-12-25T04:10:08.490Z,84.68
2018-12-25T04:12:36.973Z,84.22
2018-12-25T04:15:45.368Z,84.04
2018-12-25T04:18:32.964Z,83.72
2018-12-25T04:21:20.785Z,83.41
2018-12-25T04:24:08.377Z,83.51
2018-12-25T04:29:10.945Z,83.75
2018-12-25T04:31:58.668Z,83.62
2018-12-25T04:37:53.041Z,84.01
2018-12-25T04:40:40.759Z,83.73
2018-12-25T04:43:09.242Z,84.04
2018-12-25T04:45:37.719Z,84.62
2018-12-25T04:48:06.203Z,84.52
2018-12-25T04:50:54.013Z,84.79
2018-12-25T04:53:22.497Z,84.26
2018-12-25T04:56:10.218Z,83.99
2018-12-25T04:58:57.946Z,84.08
2018-12-25T05:01:45.667Z,84.76
2018-12-25T05:07:07.108Z,83.95
2018-12-25T05:09:35.589Z,83.45
2018-12-25T05:12:04.062Z,84.13
2018-12-25T05:14:51.789Z,83.73
2018-12-25T05:17:20.271Z,83.01
2018-12-25T05:19:48.745Z,82.86
2018-12-25T05:22:17.220Z,83.04
2018-12-25T05:24:45.699Z,83.25
2018-12-25T05:27:14.470Z,84.28
2018-12-25T05:29:42.945Z,85.22
2018-12-25T05:32:11.412Z,85.74
2018-12-25T05:34:39.894Z,85.84
2018-12-25T05:37:27.476Z,85.92
2018-12-25T05:40:15.206Z,86.06
2018-12-25T05:42:43.682Z,86.61
2018-12-25T05:45:12.160Z,86.37
2018-12-25T05:47:59.898Z,86.67
2018-12-25T05:50:47.616Z,87.40
2018-12-25T05:53:35.348Z,87.53
2018-12-25T05:56:23.172Z,87.04
2018-12-25T06:01:44.925Z,87.09
2018-12-25T06:04:13.408Z,86.93
2018-12-25T06:06:41.878Z,86.07
2018-12-25T06:09:10.360Z,85.51
2018-12-25T06:14:26.275Z,85.97
2018-12-25T06:19:42.301Z,85.92
2018-12-25T06:22:29.948Z,86.04
2018-12-25T06:25:17.677Z,85.37
2018-12-25T06:28:05.398Z,85.18
2018-12-25T06:30:33.881Z,84.86
2018-12-25T06:33:21.613Z,84.89
2018-12-25T06:38:43.829Z,84.88
2018-12-25T06:41:12.308Z,84.61
2018-12-25T06:43:40.808Z,84.87
2018-12-25T06:46:09.263Z,84.82
2018-12-25T06:48:56.850Z,84.29
2018-12-25T06:51:25.334Z,84.19
2018-12-25T06:53:53.812Z,84.68
2018-12-25T06:56:41.499Z,84.16
2018-12-25T06:59:09.985Z,84.38
2018-12-25T07:01:57.708Z,84.36
2018-12-25T07:04:45.433Z,84.27
2018-12-25T07:07:33.153Z,84.58
2018-12-25T07:10:01.641Z,84.66
2018-12-25T07:12:30.107Z,84.85
2018-12-25T07:15:17.932Z,84.66
2018-12-25T07:18:05.651Z,85.07
2018-12-25T07:20:34.134Z,85.41
2018-12-25T07:23:02.609Z,84.70
2018-12-25T07:25:31.087Z,84.87
2018-12-25T07:28:18.677Z,85.20
2018-12-25T07:30:47.164Z,86.41
2018-12-25T07:33:34.757Z,86.01
2018-12-25T07:36:03.566Z,86.21
2018-12-25T07:38:51.148Z,86.28
2018-12-25T07:41:38.747Z,86.07
2018-12-25T07:44:07.300Z,86.33
2018-12-25T07:46:35.779Z,86.86
2018-12-25T07:49:04.254Z,86.95
2018-12-25T07:51:32.728Z,87.15
2018-12-25T07:54:01.196Z,87.19
2018-12-25T07:56:48.799Z,86.90
2018-12-25T07:59:36.512Z,87.21
2018-12-25T08:02:24.339Z,87.10
2018-12-25T08:04:52.808Z,87.48
2018-12-25T08:07:21.288Z,87.36
2018-12-25T08:12:37.207Z,87.60
2018-12-25T08:15:45.619Z,88.37
2018-12-25T08:18:14.089Z,88.21
2018-12-25T08:20:42.586Z,87.50
2018-12-25T08:23:30.177Z,87.75
2018-12-25T08:26:17.916Z,87.53
2018-12-25T08:29:05.630Z,86.95
2018-12-25T08:31:34.121Z,87.04
2018-12-25T08:34:02.589Z,86.77
2018-12-25T08:36:50.318Z,86.92
2018-12-25T08:39:38.046Z,86.45
2018-12-25T08:42:06.553Z,86.42
2018-12-25T08:44:35.030Z,86.39
2018-12-25T08:47:22.633Z,86.49
2018-12-25T08:50:10.399Z,86.91
2018-12-25T08:52:38.954Z,86.60
2018-12-25T08:55:26.677Z,86.40
2018-12-25T08:58:14.410Z,86.46
2018-12-25T09:00:42.884Z,85.54
2018-12-25T09:03:30.709Z,85.26
2018-12-25T09:06:18.454Z,85.06
2018-12-25T09:12:00.029Z,84.76
2018-12-25T09:14:28.502Z,84.36
2018-12-25T09:20:10.502Z,83.25
2018-12-25T09:22:39.022Z,83.18
2018-12-25T09:25:26.622Z,82.99
2018-12-25T09:27:55.100Z,82.78
2018-12-25T09:30:42.690Z,83.07
2018-12-25T09:36:04.066Z,82.89
2018-12-25T09:38:51.802Z,82.44
2018-12-25T09:41:39.530Z,81.36
2018-12-25T09:44:20.638Z,80.84
2018-12-25T09:47:08.376Z,80.30
2018-12-25T09:49:36.848Z,79.90
2018-12-25T09:52:05.335Z,79.70
2018-12-25T09:54:53.163Z,79.11
2018-12-25T09:57:40.888Z,79.58
2018-12-25T10:00:49.297Z,79.11
2018-12-25T10:03:17.789Z,78.58
2018-12-25T10:06:05.605Z,78.06
2018-12-25T10:08:34.088Z,78.61
2018-12-25T10:16:43.277Z,79.03
2018-12-25T10:19:11.760Z,79.12
2018-12-25T10:22:03.018Z,79.67
2018-12-25T10:24:29.781Z,79.68
2018-12-25T10:26:58.257Z,79.42
2018-12-25T10:29:26.841Z,79.54
2018-12-25T10:31:55.319Z,79.34
2018-12-25T10:34:23.806Z,79.33
2018-12-25T10:37:11.524Z,79.72
2018-12-25T10:39:40.007Z,79.59
2018-12-25T10:42:08.479Z,79.48
2018-12-25T10:44:36.970Z,79.60
2018-12-25T10:47:05.430Z,79.03
2018-12-25T10:49:53.028Z,78.99
2018-12-25T10:52:40.616Z,79.13
2018-12-25T10:55:28.348Z,79.33
2018-12-25T10:57:56.833Z,79.52
2018-12-25T11:03:20.085Z,79.49
2018-12-25T11:06:07.812Z,80.14
2018-12-25T11:08:55.765Z,80.20
2018-12-25T11:11:43.495Z,80.71
2018-12-25T11:14:11.980Z,80.38
2018-12-25T11:19:27.902Z,79.82
2018-12-25T11:22:19.815Z,79.69
2018-12-25T11:24:45.701Z,78.55
2018-12-25T11:30:01.620Z,79.42
2018-12-25T11:32:49.335Z,79.64
2018-12-25T11:35:17.816Z,79.22
2018-12-25T11:38:05.532Z,79.25
2018-12-25T11:43:07.701Z,79.71
2018-12-25T11:45:55.429Z,79.93
2018-12-25T11:48:23.901Z,80.09
2018-12-25T11:50:52.383Z,80.12
2018-12-25T11:53:20.859Z,80.03
2018-12-25T11:56:08.803Z,79.18
2018-12-25T11:58:56.515Z,79.67
2018-12-25T12:01:25.058Z,79.32
2018-12-25T12:04:12.688Z,79.34
2018-12-25T12:07:00.587Z,79.52
2018-12-25T12:09:48.241Z,78.82
2018-12-25T12:12:36.128Z,79.39
2018-12-25T12:15:44.583Z,79.35
2018-12-25T12:18:13.123Z,79.21
2018-12-25T12:25:50.408Z,78.23
2018-12-25T12:28:18.881Z,77.40
2018-12-25T12:31:06.609Z,77.46
2018-12-25T12:33:54.204Z,76.59
2018-12-25T12:36:42.070Z,77.10
2018-12-25T12:39:10.499Z,76.25
2018-12-25T12:41:58.097Z,76.44
2018-12-25T12:44:45.691Z,76.13
2018-12-25T12:47:33.419Z,76.56
2018-12-25T12:50:01.895Z,77.15
2018-12-25T12:52:30.383Z,76.90
2018-12-25T12:58:05.643Z,76.07
2018-12-25T13:00:53.360Z,75.95
2018-12-25T13:03:40.960Z,76.49
2018-12-25T13:06:09.429Z,76.00
2018-12-25T13:08:37.908Z,76.05
2018-12-25T13:13:53.817Z,76.60
2018-12-25T13:16:41.405Z,77.13
2018-12-25T13:19:09.890Z,76.66
2018-12-25T13:24:25.818Z,76.51
2018-12-25T13:26:54.281Z,75.99
2018-12-25T13:29:41.876Z,76.09
2018-12-25T13:34:44.967Z,76.25
2018-12-25T13:37:13.451Z,76.07
2018-12-25T13:40:01.170Z,76.29
2018-12-25T13:42:29.655Z,76.10
2018-12-25T13:45:10.861Z,76.36
2018-12-25T13:47:58.470Z,76.30
2018-12-25T13:50:46.275Z,76.82
2018-12-25T13:55:48.660Z,76.77
2018-12-25T13:58:24.722Z,76.81
2018-12-25T14:01:12.544Z,76.70
2018-12-25T14:03:41.028Z,76.35
2018-12-25T14:06:09.503Z,76.44
2018-12-25T14:08:57.334Z,76.14
2018-12-25T14:11:45.171Z,76.17
2018-12-25T14:14:13.648Z,75.84
2018-12-25T14:17:01.363Z,76.55
2018-12-25T14:19:29.845Z,76.42
2018-12-25T14:24:45.760Z,75.67
2018-12-25T14:27:14.233Z,76.04
2018-12-25T14:29:42.711Z,76.18
2018-12-25T14:35:17.764Z,76.17
2018-12-25T14:37:46.237Z,75.49
2018-12-25T14:40:54.647Z,75.29
2018-12-25T14:43:23.120Z,75.63
2018-12-25T14:45:51.601Z,75.89
2018-12-25T14:48:20.073Z,75.83
2018-12-25T14:51:07.669Z,75.61
2018-12-25T14:56:23.588Z,76.93
2018-12-25T14:59:11.313Z,76.64
2018-12-25T15:01:39.786Z,76.55
2018-12-25T15:06:42.977Z,76.47
2018-12-25T15:09:30.807Z,76.24
2018-12-25T15:12:18.400Z,76.02
2018-12-25T15:14:46.981Z,76.88
2018-12-25T15:17:15.432Z,76.55
2018-12-25T15:19:43.924Z,76.23
2018-12-25T15:22:12.395Z,75.92
2018-12-25T15:24:40.875Z,75.95
2018-12-25T15:27:28.466Z,76.12
2018-12-25T15:29:56.949Z,76.01
2018-12-25T15:32:25.422Z,75.66
2018-12-25T15:35:13.283Z,75.49
2018-12-25T15:37:41.759Z,75.60
2018-12-25T15:42:44.190Z,75.60
2018-12-25T15:45:12.670Z,75.58
2018-12-25T15:48:00.397Z,75.61
2018-12-25T15:50:28.876Z,76.31
2018-12-25T15:53:16.464Z,77.02
2018-12-25T15:55:44.944Z,76.77
2018-12-25T15:58:53.329Z,76.80
2018-12-25T16:01:21.815Z,77.40
2018-12-25T16:06:56.855Z,77.03
2018-12-25T16:09:25.326Z,76.89
2018-12-25T16:12:13.101Z,78.19
2018-12-25T16:14:41.576Z,77.99
2018-12-25T16:17:10.063Z,78.29
2018-12-25T16:19:38.537Z,77.49
2018-12-25T16:22:07.019Z,77.63
2018-12-25T16:27:22.931Z,77.88
2018-12-25T16:29:51.406Z,77.92
2018-12-25T16:32:39.160Z,77.53
2018-12-25T16:35:07.632Z,78.07
2018-12-25T16:37:36.113Z,77.61
2018-12-25T16:40:44.506Z,77.46
2018-12-25T16:43:12.983Z,77.43
2018-12-25T16:48:15.607Z,77.68
2018-12-25T16:50:44.097Z,78.27
2018-12-25T16:53:12.578Z,78.41
2018-12-25T16:58:40.214Z,78.56
2018-12-25T17:00:58.706Z,78.80
2018-12-25T17:03:46.512Z,78.69
2018-12-25T17:06:14.994Z,79.46
2018-12-25T17:08:43.469Z,79.49
2018-12-25T17:11:31.193Z,79.76
2018-12-25T17:13:59.663Z,79.66
2018-12-25T17:16:47.396Z,79.67
2018-12-25T17:19:35.386Z,79.66
2018-12-25T17:22:23.090Z,79.54
2018-12-25T17:28:18.916Z,79.42
2018-12-25T17:31:06.641Z,79.82
2018-12-25T17:33:35.121Z,80.39
2018-12-25T17:36:03.592Z,81.27
2018-12-25T17:41:05.936Z,81.84
2018-12-25T17:43:46.954Z,82.33
2018-12-25T17:46:15.429Z,82.20
2018-12-25T17:49:03.259Z,81.88
2018-12-25T17:51:50.978Z,81.52
2018-12-25T17:54:19.456Z,81.82
2018-12-25T17:56:47.934Z,82.61
2018-12-25T17:59:35.760Z,82.63
2018-12-25T18:02:23.578Z,82.34
2018-12-25T18:05:12.051Z,82.47
2018-12-25T18:07:41.379Z,82.24
2018-12-25T18:10:49.775Z,82.54
2018-12-25T18:13:18.252Z,83.07
2018-12-25T18:16:05.844Z,83.26
2018-12-25T18:18:53.669Z,83.06
2018-12-25T18:21:41.389Z,83.10
2018-12-25T18:24:29.122Z,83.39
2018-12-25T18:27:16.717Z,83.03
2018-12-25T18:32:38.268Z,83.80
2018-12-25T18:35:26.094Z,83.10
2018-12-25T18:40:42.057Z,83.78
2018-12-25T18:43:29.807Z,83.39
2018-12-25T18:49:06.659Z,83.74
2018-12-25T18:51:35.132Z,83.97
2018-12-25T18:54:03.614Z,83.59
2018-12-25T18:56:51.353Z,83.66
2018-12-25T18:59:19.926Z,83.41
2018-12-25T19:01:48.540Z,83.36
2018-12-25T19:04:17.093Z,83.44
2018-12-25T19:09:52.361Z,83.68
2018-12-25T19:12:40.285Z,83.13
2018-12-25T19:15:48.815Z,82.78
2018-12-25T19:18:17.360Z,82.44
2018-12-25T19:20:45.979Z,82.14
2018-12-25T19:23:33.640Z,81.31
2018-12-25T19:26:21.421Z,81.72
2018-12-25T19:28:49.919Z,81.96
2018-12-25T19:31:18.395Z,81.66
2018-12-25T19:33:46.863Z,81.51
2018-12-25T19:38:49.880Z,81.21
2018-12-25T19:41:18.473Z,80.87
2018-12-25T19:44:06.240Z,80.51
2018-12-25T19:46:34.765Z,80.07
2018-12-25T19:49:03.284Z,80.05
2018-12-25T19:51:51.016Z,79.37
2018-12-25T19:54:44.550Z,79.54
2018-12-25T19:57:09.908Z,79.76
2018-12-25T19:59:39.201Z,79.86
2018-12-25T20:02:07.819Z,79.59
2018-12-25T20:05:16.272Z,78.74
2018-12-25T20:11:37.710Z,78.31
2018-12-25T20:14:44.818Z,78.29
2018-12-25T20:17:53.243Z,78.32
2018-12-25T20:21:00.394Z,78.49
2018-12-25T20:24:07.503Z,78.12
2018-12-25T20:27:14.705Z,78.12
2018-12-25T20:30:23.161Z,77.42
2018-12-25T20:33:30.284Z,77.74
2018-12-25T20:36:38.689Z,77.72
2018-12-25T20:39:47.104Z,77.46
2018-12-25T20:42:55.495Z,77.33
2018-12-25T20:46:03.988Z,77.65
2018-12-25T20:49:12.543Z,77.37
2018-12-25T20:52:21.041Z,77.57
2018-12-25T20:55:28.221Z,78.60
2018-12-25T20:58:36.764Z,78.41
2018-12-25T21:01:45.362Z,78.03
2018-12-25T21:04:52.484Z,78.57
2018-12-25T21:07:59.632Z,78.59
2018-12-25T21:11:06.751Z,78.97
2018-12-25T21:14:15.260Z,79.61
2018-12-25T21:17:23.813Z,79.96
2018-12-25T21:20:32.369Z,80.88
2018-12-25T21:23:39.597Z,81.08
2018-12-25T21:26:46.772Z,81.05
2018-12-25T21:29:15.315Z,81.61
2018-12-25T21:34:39.255Z,82.01
2018-12-25T21:37:47.943Z,81.54
2018-12-25T21:40:16.624Z,81.77
2018-12-25T21:45:39.686Z,81.78
2018-12-25T21:51:03.261Z,81.90
2018-12-25T21:54:11.847Z,81.95
2018-12-25T21:59:48.653Z,81.92
2018-12-25T22:02:57.158Z,81.74
2018-12-25T22:05:25.673Z,81.19
2018-12-25T22:07:54.297Z,81.09
2018-12-25T22:10:22.974Z,80.90
2018-12-25T22:12:51.518Z,81.55
2018-12-25T22:15:20.352Z,81.51
2018-12-25T22:17:50.396Z,81.42
2018-12-25T22:20:58.935Z,81.72
2018-12-25T22:23:27.605Z,81.66
2018-12-25T22:26:15.451Z,81.92
2018-12-25T22:28:44.018Z,82.50
2018-12-25T22:31:31.833Z,82.56
2018-12-25T22:34:00.410Z,82.45
2018-12-25T22:36:29.008Z,82.80
2018-12-25T22:39:16.872Z,82.69
2018-12-25T22:41:45.464Z,82.35
2018-12-25T22:44:14.044Z,82.14
2018-12-25T22:46:42.628Z,82.10
2018-12-25T22:49:30.466Z,81.69
2018-12-25T22:51:59.023Z,81.37
2018-12-25T22:54:27.589Z,81.17
2018-12-25T22:59:43.615Z,80.79
2018-12-25T23:02:31.469Z,81.37
2018-12-25T23:05:00.147Z,81.37
2018-12-25T23:07:28.676Z,81.50
2018-12-25T23:09:57.335Z,81.08
2018-12-25T23:12:26.039Z,81.18
2018-12-25T23:14:54.626Z,81.18
2018-12-25T23:17:42.393Z,81.14
2018-12-25T23:20:11.026Z,81.18
2018-12-25T23:22:39.541Z,80.72
2018-12-25T23:25:08.157Z,80.79
2018-12-25T23:27:36.741Z,81.23
2018-12-25T23:30:24.555Z,80.50
2018-12-25T23:32:53.153Z,80.61
2018-12-25T23:35:21.686Z,80.61
2018-12-25T23:37:50.272Z,80.40
2018-12-25T23:40:18.791Z,80.20
2018-12-25T23:42:47.440Z,80.45
2018-12-25T23:45:16.091Z,80.35
2018-12-25T23:47:44.570Z,80.88
2018-12-25T23:50:13.058Z,80.96
2018-12-25T23:52:41.537Z,80.84
2018-12-25T23:55:29.404Z,80.59
2018-12-25T23:57:57.848Z,80.40
